Aviation Digital Data Service (ADDS)

Output produced by METARs form (1024 UTC 19 February 2019)
found at http://www.aviationweather.gov/metar/data/
 
METAR text: KCLE 190951Z 00000KT 10SM BKN250 M10/M12 A3058 RMK AO2 SLP369 T11001122 $
Conditions at: KCLE (CLEVELAND , OH, US) observed 0951 UTC 19 February 2019
Temperature: -10.0°C (14°F)
Dewpoint: -12.2°C (10°F) [RH = 84%]
Pressure (altimeter): 30.58 inches Hg (1035.6 mb)
[Sea-level pressure: 1036.9 mb]
Winds: calm
Visibility: 10 or more miles (16+ km)
Ceiling: 25000 feet AGL
Clouds: broken clouds at 25000 feet AGL
Weather:
SOME DATA ABOVE MAY BE INACCURATE!!!
"$" is an indication the sensor requires maintenance

METAR text: KCLE 190851Z 17005KT 10SM BKN250 M11/M12 A3057 RMK AO2 SLP366 I1000 I3000 T11061122 53006 $
Conditions at: KCLE (CLEVELAND , OH, US) observed 0851 UTC 19 February 2019
Temperature: -10.6°C (13°F)
Dewpoint: -12.2°C (10°F) [RH = 88%]
Pressure (altimeter): 30.57 inches Hg (1035.3 mb)
[Sea-level pressure: 1036.6 mb]
Winds: from the S (170 degrees) at 6 MPH (5 knots; 2.6 m/s)
Visibility: 10 or more miles (16+ km)
Ceiling: 25000 feet AGL
Clouds: broken clouds at 25000 feet AGL
Weather:
SOME DATA ABOVE MAY BE INACCURATE!!!
"$" is an indication the sensor requires maintenance

METAR text: KCLE 190751Z 00000KT 10SM FEW026 BKN250 M10/M12 A3057 RMK AO2 SLP365 I1000 T11001117 $
Conditions at: KCLE (CLEVELAND , OH, US) observed 0751 UTC 19 February 2019
Temperature: -10.0°C (14°F)
Dewpoint: -11.7°C (11°F) [RH = 87%]
Pressure (altimeter): 30.57 inches Hg (1035.3 mb)
[Sea-level pressure: 1036.5 mb]
Winds: calm
Visibility: 10 or more miles (16+ km)
Ceiling: 25000 feet AGL
Clouds: few clouds at 2600 feet AGL
broken clouds at 25000 feet AGL
Weather:
SOME DATA ABOVE MAY BE INACCURATE!!!
"$" is an indication the sensor requires maintenance

METAR text: KCLE 190651Z 00000KT 10SM SCT026 BKN250 M08/M10 A3056 RMK AO2 SLP361 T10781100 $
Conditions at: KCLE (CLEVELAND , OH, US) observed 0651 UTC 19 February 2019
Temperature: -7.8°C (18°F)
Dewpoint: -10.0°C (14°F) [RH = 84%]
Pressure (altimeter): 30.56 inches Hg (1035.0 mb)
[Sea-level pressure: 1036.1 mb]
Winds: calm
Visibility: 10 or more miles (16+ km)
Ceiling: 25000 feet AGL
Clouds: scattered clouds at 2600 feet AGL
broken clouds at 25000 feet AGL
Weather:
SOME DATA ABOVE MAY BE INACCURATE!!!
"$" is an indication the sensor requires maintenance

METAR text: KCLE 190635Z 00000KT 10SM BKN026 BKN250 M08/M11 A3055 RMK AO2 T10831106 $
Conditions at: KCLE (CLEVELAND , OH, US) observed 0635 UTC 19 February 2019
Temperature: -8.3°C (17°F)
Dewpoint: -10.6°C (13°F) [RH = 83%]
Pressure (altimeter): 30.55 inches Hg (1034.6 mb)
Winds: calm
Visibility: 10 or more miles (16+ km)
Ceiling: 2600 feet AGL
Clouds: broken clouds at 2600 feet AGL
broken clouds at 25000 feet AGL
Weather:
SOME DATA ABOVE MAY BE INACCURATE!!!
"$" is an indication the sensor requires maintenance

METAR text: KCLE 190551Z 00000KT 10SM FEW018 SCT250 M08/M11 A3055 RMK AO2 SNE06 SLP360 4/001 P0000 60000 T10781106 11050 21083 51013 $
Conditions at: KCLE (CLEVELAND , OH, US) observed 0551 UTC 19 February 2019
Temperature: -7.8°C (18°F)
Dewpoint: -10.6°C (13°F) [RH = 80%]
Pressure (altimeter): 30.55 inches Hg (1034.6 mb)
[Sea-level pressure: 1036.0 mb]
Winds: calm
Visibility: 10 or more miles (16+ km)
Ceiling: at least 12,000 feet AGL
Clouds: few clouds at 1800 feet AGL
scattered clouds at 25000 feet AGL
Weather:
SOME DATA ABOVE MAY BE INACCURATE!!!
"$" is an indication the sensor requires maintenance

METAR text: KCLE 190508Z 05004KT 9SM SCT020 M07/M11 A3055 RMK AO2 SNE06 P0000 T10721106 $
Conditions at: KCLE (CLEVELAND , OH, US) observed 0508 UTC 19 February 2019
Temperature: -7.2°C (19°F)
Dewpoint: -10.6°C (13°F) [RH = 77%]
Pressure (altimeter): 30.55 inches Hg (1034.6 mb)
Winds: from the NE (50 degrees) at 5 MPH (4 knots; 2.1 m/s)
Visibility: 9 miles (14 km)
Ceiling: at least 12,000 feet AGL
Clouds: scattered clouds at 2000 feet AGL
Weather:
SOME DATA ABOVE MAY BE INACCURATE!!!
"$" is an indication the sensor requires maintenance

METAR text: KCLE 190451Z 04005KT 9SM -SN OVC022 M07/M11 A3054 RMK AO2 SLP356 P0000 T10721106 410171072 $
Conditions at: KCLE (CLEVELAND , OH, US) observed 0451 UTC 19 February 2019
Temperature: -7.2°C (19°F)
Dewpoint: -10.6°C (13°F) [RH = 77%]
Pressure (altimeter): 30.54 inches Hg (1034.3 mb)
[Sea-level pressure: 1035.6 mb]
Winds: from the NE (40 degrees) at 6 MPH (5 knots; 2.6 m/s)
Visibility: 9 miles (14 km)
Ceiling: 2200 feet AGL
Clouds: overcast cloud deck at 2200 feet AGL
Weather: -SN  (light snow)
SOME DATA ABOVE MAY BE INACCURATE!!!
"$" is an indication the sensor requires maintenance

METAR text: KCLE 190436Z 03006KT 9SM -SN BKN026 OVC037 M07/M11 A3054 RMK AO2 P0000 T10721106 $
Conditions at: KCLE (CLEVELAND , OH, US) observed 0436 UTC 19 February 2019
Temperature: -7.2°C (19°F)
Dewpoint: -10.6°C (13°F) [RH = 77%]
Pressure (altimeter): 30.54 inches Hg (1034.3 mb)
Winds: from the NNE (30 degrees) at 7 MPH (6 knots; 3.1 m/s)
Visibility: 9 miles (14 km)
Ceiling: 2600 feet AGL
Clouds: broken clouds at 2600 feet AGL
overcast cloud deck at 3700 feet AGL
Weather: -SN  (light snow)
SOME DATA ABOVE MAY BE INACCURATE!!!
"$" is an indication the sensor requires maintenance

METAR text: KCLE 190351Z 02005KT 9SM -SN OVC038 M07/M10 A3054 RMK AO2 SNE17B44 SLP353 P0000 T10671100 $
Conditions at: KCLE (CLEVELAND , OH, US) observed 0351 UTC 19 February 2019
Temperature: -6.7°C (20°F)
Dewpoint: -10.0°C (14°F) [RH = 77%]
Pressure (altimeter): 30.54 inches Hg (1034.3 mb)
[Sea-level pressure: 1035.3 mb]
Winds: from the NNE (20 degrees) at 6 MPH (5 knots; 2.6 m/s)
Visibility: 9 miles (14 km)
Ceiling: 3800 feet AGL
Clouds: overcast cloud deck at 3800 feet AGL
Weather: -SN  (light snow)
SOME DATA ABOVE MAY BE INACCURATE!!!
"$" is an indication the sensor requires maintenance

METAR text: KCLE 190324Z 02003KT 10SM OVC037 M07/M10 A3053 RMK AO2 SNE17 P0000 T10671100 $
Conditions at: KCLE (CLEVELAND , OH, US) observed 0324 UTC 19 February 2019
Temperature: -6.7°C (20°F)
Dewpoint: -10.0°C (14°F) [RH = 77%]
Pressure (altimeter): 30.53 inches Hg (1033.9 mb)
Winds: from the NNE (20 degrees) at 3 MPH (3 knots; 1.5 m/s)
Visibility: 10 or more miles (16+ km)
Ceiling: 3700 feet AGL
Clouds: overcast cloud deck at 3700 feet AGL
Weather:
SOME DATA ABOVE MAY BE INACCURATE!!!
"$" is an indication the sensor requires maintenance

METAR text: KCLE 190251Z 02004KT 9SM -SN SCT010 BKN017 BKN033 M07/M11 A3051 RMK AO2 SNB17 SLP345 P0000 60000 T10671106 51029 $
Conditions at: KCLE (CLEVELAND , OH, US) observed 0251 UTC 19 February 2019
Temperature: -6.7°C (20°F)
Dewpoint: -10.6°C (13°F) [RH = 74%]
Pressure (altimeter): 30.51 inches Hg (1033.3 mb)
[Sea-level pressure: 1034.5 mb]
Winds: from the NNE (20 degrees) at 5 MPH (4 knots; 2.1 m/s)
Visibility: 9 miles (14 km)
Ceiling: 1700 feet AGL
Clouds: scattered clouds at 1000 feet AGL
broken clouds at 1700 feet AGL
broken clouds at 3300 feet AGL
Weather: -SN  (light snow)
SOME DATA ABOVE MAY BE INACCURATE!!!
"$" is an indication the sensor requires maintenance

METAR text: KCLE 190243Z 02006KT 9SM -SN SCT010 BKN017 OVC033 M07/M10 A3051 RMK AO2 SNB17 P0000 T10671100 $
Conditions at: KCLE (CLEVELAND , OH, US) observed 0243 UTC 19 February 2019
Temperature: -6.7°C (20°F)
Dewpoint: -10.0°C (14°F) [RH = 77%]
Pressure (altimeter): 30.51 inches Hg (1033.3 mb)
Winds: from the NNE (20 degrees) at 7 MPH (6 knots; 3.1 m/s)
Visibility: 9 miles (14 km)
Ceiling: 1700 feet AGL
Clouds: scattered clouds at 1000 feet AGL
broken clouds at 1700 feet AGL
overcast cloud deck at 3300 feet AGL
Weather: -SN  (light snow)
SOME DATA ABOVE MAY BE INACCURATE!!!
"$" is an indication the sensor requires maintenance

METAR text: KCLE 190209Z 01003KT 10SM FEW021 SCT028 OVC036 M06/M09 A3049 RMK AO2 T10611094 $
Conditions at: KCLE (CLEVELAND , OH, US) observed 0209 UTC 19 February 2019
Temperature: -6.1°C (21°F)
Dewpoint: -9.4°C (15°F) [RH = 77%]
Pressure (altimeter): 30.49 inches Hg (1032.6 mb)
Winds: from the N (10 degrees) at 3 MPH (3 knots; 1.5 m/s)
Visibility: 10 or more miles (16+ km)
Ceiling: 3600 feet AGL
Clouds: few clouds at 2100 feet AGL
scattered clouds at 2800 feet AGL
overcast cloud deck at 3600 feet AGL
Weather:
SOME DATA ABOVE MAY BE INACCURATE!!!
"$" is an indication the sensor requires maintenance

METAR text: KCLE 190151Z 36004KT 9SM BKN024 M06/M09 A3049 RMK AO2 SNB04E46 SLP337 P0000 T10611094 $
Conditions at: KCLE (CLEVELAND , OH, US) observed 0151 UTC 19 February 2019
Temperature: -6.1°C (21°F)
Dewpoint: -9.4°C (15°F) [RH = 77%]
Pressure (altimeter): 30.49 inches Hg (1032.6 mb)
[Sea-level pressure: 1033.7 mb]
Winds: from the N (360 degrees) at 5 MPH (4 knots; 2.1 m/s)
Visibility: 9 miles (14 km)
Ceiling: 2400 feet AGL
Clouds: broken clouds at 2400 feet AGL
Weather:
SOME DATA ABOVE MAY BE INACCURATE!!!
"$" is an indication the sensor requires maintenance

METAR text: KCLE 190120Z 02004KT 8SM -SN SCT015 BKN020 OVC035 M06/M08 A3047 RMK AO2 SNB04 P0000 T10561083 $
Conditions at: KCLE (CLEVELAND , OH, US) observed 0120 UTC 19 February 2019
Temperature: -5.6°C (22°F)
Dewpoint: -8.3°C (17°F) [RH = 81%]
Pressure (altimeter): 30.47 inches Hg (1031.9 mb)
Winds: from the NNE (20 degrees) at 5 MPH (4 knots; 2.1 m/s)
Visibility: 8 miles (13 km)
Ceiling: 2000 feet AGL
Clouds: scattered clouds at 1500 feet AGL
broken clouds at 2000 feet AGL
overcast cloud deck at 3500 feet AGL
Weather: -SN  (light snow)
SOME DATA ABOVE MAY BE INACCURATE!!!
"$" is an indication the sensor requires maintenance

METAR text: KCLE 190051Z 02003KT 10SM OVC034 M05/M08 A3046 RMK AO2 SLP326 T10501083 $
Conditions at: KCLE (CLEVELAND , OH, US) observed 0051 UTC 19 February 2019
Temperature: -5.0°C (23°F)
Dewpoint: -8.3°C (17°F) [RH = 78%]
Pressure (altimeter): 30.46 inches Hg (1031.6 mb)
[Sea-level pressure: 1032.6 mb]
Winds: from the NNE (20 degrees) at 3 MPH (3 knots; 1.5 m/s)
Visibility: 10 or more miles (16+ km)
Ceiling: 3400 feet AGL
Clouds: overcast cloud deck at 3400 feet AGL
Weather:
SOME DATA ABOVE MAY BE INACCURATE!!!
"$" is an indication the sensor requires maintenance

METAR text: KCLE 182351Z 34004KT 10SM FEW045 M06/M08 A3043 RMK AO2 SNE12 SLP315 4/001 P0000 60000 T10561083 11033 21056 53027
Conditions at: KCLE (CLEVELAND , OH, US) observed 2351 UTC 18 February 2019
Temperature: -5.6°C (22°F)
Dewpoint: -8.3°C (17°F) [RH = 81%]
Pressure (altimeter): 30.43 inches Hg (1030.6 mb)
[Sea-level pressure: 1031.5 mb]
Winds: from the NNW (340 degrees) at 5 MPH (4 knots; 2.1 m/s)
Visibility: 10 or more miles (16+ km)
Ceiling: at least 12,000 feet AGL
Clouds: few clouds at 4500 feet AGL
Weather: no significant weather observed at this time

METAR text: KCLE 182305Z 34005KT 4SM -SN SCT014 SCT027 BKN033 M05/M08 A3039 RMK AO2 P0000 T10501078
Conditions at: KCLE (CLEVELAND , OH, US) observed 2305 UTC 18 February 2019
Temperature: -5.0°C (23°F)
Dewpoint: -7.8°C (18°F) [RH = 81%]
Pressure (altimeter): 30.39 inches Hg (1029.2 mb)
Winds: from the NNW (340 degrees) at 6 MPH (5 knots; 2.6 m/s)
Visibility: 4 miles ( 6 km)
Ceiling: 3300 feet AGL
Clouds: scattered clouds at 1400 feet AGL
scattered clouds at 2700 feet AGL
broken clouds at 3300 feet AGL
Weather: -SN  (light snow)

METAR text: KCLE 182254Z 36009KT 2 1/2SM -SN SCT014 BKN027 OVC031 M04/M08 A3039 RMK AO2 P0000 T10441078
Conditions at: KCLE (CLEVELAND , OH, US) observed 2254 UTC 18 February 2019
Temperature: -4.4°C (24°F)
Dewpoint: -7.8°C (18°F) [RH = 77%]
Pressure (altimeter): 30.39 inches Hg (1029.2 mb)
Winds: from the N (360 degrees) at 10 MPH (9 knots; 4.6 m/s)
Visibility: 2.50 miles (4.02 km)
Ceiling: 2700 feet AGL
Clouds: scattered clouds at 1400 feet AGL
broken clouds at 2700 feet AGL
overcast cloud deck at 3100 feet AGL
Weather: -SN  (light snow)

METAR text: KCLE 182251Z 35008KT 3SM -SN SCT016 BKN031 M04/M07 A3038 RMK AO2 SNB45 SLP301 P0000 T10441072
Conditions at: KCLE (CLEVELAND , OH, US) observed 2251 UTC 18 February 2019
Temperature: -4.4°C (24°F)
Dewpoint: -7.2°C (19°F) [RH = 81%]
Pressure (altimeter): 30.38 inches Hg (1028.9 mb)
[Sea-level pressure: 1030.1 mb]
Winds: from the N (350 degrees) at 9 MPH (8 knots; 4.1 m/s)
Visibility: 3 miles ( 5 km)
Ceiling: 3100 feet AGL
Clouds: scattered clouds at 1600 feet AGL
broken clouds at 3100 feet AGL
Weather: -SN  (light snow)

METAR text: KCLE 182151Z 33007KT 10SM SCT028 M04/M09 A3035 RMK AO2 SLP287 T10391094
Conditions at: KCLE (CLEVELAND , OH, US) observed 2151 UTC 18 February 2019
Temperature: -3.9°C (25°F)
Dewpoint: -9.4°C (15°F) [RH = 66%]
Pressure (altimeter): 30.35 inches Hg (1027.9 mb)
[Sea-level pressure: 1028.7 mb]
Winds: from the NNW (330 degrees) at 8 MPH (7 knots; 3.6 m/s)
Visibility: 10 or more miles (16+ km)
Ceiling: at least 12,000 feet AGL
Clouds: scattered clouds at 2800 feet AGL
Weather: no significant weather observed at this time

METAR text: KCLE 182136Z 33009KT 10SM BKN028 BKN034 M04/M10 A3034 RMK AO2 T10391100
Conditions at: KCLE (CLEVELAND , OH, US) observed 2136 UTC 18 February 2019
Temperature: -3.9°C (25°F)
Dewpoint: -10.0°C (14°F) [RH = 62%]
Pressure (altimeter): 30.34 inches Hg (1027.5 mb)
Winds: from the NNW (330 degrees) at 10 MPH (9 knots; 4.6 m/s)
Visibility: 10 or more miles (16+ km)
Ceiling: 2800 feet AGL
Clouds: broken clouds at 2800 feet AGL
broken clouds at 3400 feet AGL
Weather: no significant weather observed at this time

METAR text: KCLE 182128Z 33013G18KT 10SM BKN030 M03/M09 A3033 RMK AO2 T10331094
Conditions at: KCLE (CLEVELAND , OH, US) observed 2128 UTC 18 February 2019
Temperature: -3.3°C (26°F)
Dewpoint: -9.4°C (15°F) [RH = 63%]
Pressure (altimeter): 30.33 inches Hg (1027.2 mb)
Winds: from the NNW (330 degrees) at 15 MPH (13 knots; 6.7 m/s)
gusting to 21 MPH (18 knots; 9.3 m/s)
Visibility: 10 or more miles (16+ km)
Ceiling: 3000 feet AGL
Clouds: broken clouds at 3000 feet AGL
Weather: no significant weather observed at this time

METAR text: KCLE 182051Z 33013KT 10SM BKN024 OVC034 M03/M08 A3031 RMK AO2 SNE45 SLP276 P0000 60000 T10331083 51022
Conditions at: KCLE (CLEVELAND , OH, US) observed 2051 UTC 18 February 2019
Temperature: -3.3°C (26°F)
Dewpoint: -8.3°C (17°F) [RH = 68%]
Pressure (altimeter): 30.31 inches Hg (1026.5 mb)
[Sea-level pressure: 1027.6 mb]
Winds: from the NNW (330 degrees) at 15 MPH (13 knots; 6.7 m/s)
Visibility: 10 or more miles (16+ km)
Ceiling: 2400 feet AGL
Clouds: broken clouds at 2400 feet AGL
overcast cloud deck at 3400 feet AGL
Weather: no significant weather observed at this time

METAR text: KCLE 182026Z 31009KT 3SM -SN FEW015 SCT023 OVC030 M04/M08 A3030 RMK AO2 P0000 T10441083
Conditions at: KCLE (CLEVELAND , OH, US) observed 2026 UTC 18 February 2019
Temperature: -4.4°C (24°F)
Dewpoint: -8.3°C (17°F) [RH = 74%]
Pressure (altimeter): 30.30 inches Hg (1026.2 mb)
Winds: from the NW (310 degrees) at 10 MPH (9 knots; 4.6 m/s)
Visibility: 3 miles ( 5 km)
Ceiling: 3000 feet AGL
Clouds: few clouds at 1500 feet AGL
scattered clouds at 2300 feet AGL
overcast cloud deck at 3000 feet AGL
Weather: -SN  (light snow)

METAR text: KCLE 182024Z 31008KT 2SM -SN FEW015 SCT023 OVC031 M04/M08 A3030 RMK AO2 P0000 T10441083
Conditions at: KCLE (CLEVELAND , OH, US) observed 2024 UTC 18 February 2019
Temperature: -4.4°C (24°F)
Dewpoint: -8.3°C (17°F) [RH = 74%]
Pressure (altimeter): 30.30 inches Hg (1026.2 mb)
Winds: from the NW (310 degrees) at 9 MPH (8 knots; 4.1 m/s)
Visibility: 2.00 miles (3.22 km)
Ceiling: 3100 feet AGL
Clouds: few clouds at 1500 feet AGL
scattered clouds at 2300 feet AGL
overcast cloud deck at 3100 feet AGL
Weather: -SN  (light snow)

METAR text: KCLE 182018Z 30009KT 1 3/4SM -SN SCT015 BKN022 OVC029 M04/M07 A3030 RMK AO2 P0000 T10391072
Conditions at: KCLE (CLEVELAND , OH, US) observed 2018 UTC 18 February 2019
Temperature: -3.9°C (25°F)
Dewpoint: -7.2°C (19°F) [RH = 78%]
Pressure (altimeter): 30.30 inches Hg (1026.2 mb)
Winds: from the WNW (300 degrees) at 10 MPH (9 knots; 4.6 m/s)
Visibility: 1.75 miles (2.82 km)
Ceiling: 2200 feet AGL
Clouds: scattered clouds at 1500 feet AGL
broken clouds at 2200 feet AGL
overcast cloud deck at 2900 feet AGL
Weather: -SN  (light snow)

METAR text: KCLE 182009Z 31008KT 5SM -SN SCT020 OVC028 M04/M08 A3029 RMK AO2 P0000 T10391078
Conditions at: KCLE (CLEVELAND , OH, US) observed 2009 UTC 18 February 2019
Temperature: -3.9°C (25°F)
Dewpoint: -7.8°C (18°F) [RH = 74%]
Pressure (altimeter): 30.29 inches Hg (1025.8 mb)
Winds: from the NW (310 degrees) at 9 MPH (8 knots; 4.1 m/s)
Visibility: 5 miles ( 8 km)
Ceiling: 2800 feet AGL
Clouds: scattered clouds at 2000 feet AGL
overcast cloud deck at 2800 feet AGL
Weather: -SN  (light snow)

METAR text: KCLE 181951Z 31008KT 2SM -SN OVC020 M04/M08 A3029 RMK AO2 SLP267 P0000 T10441078
Conditions at: KCLE (CLEVELAND , OH, US) observed 1951 UTC 18 February 2019
Temperature: -4.4°C (24°F)
Dewpoint: -7.8°C (18°F) [RH = 77%]
Pressure (altimeter): 30.29 inches Hg (1025.8 mb)
[Sea-level pressure: 1026.7 mb]
Winds: from the NW (310 degrees) at 9 MPH (8 knots; 4.1 m/s)
Visibility: 2.00 miles (3.22 km)
Ceiling: 2000 feet AGL
Clouds: overcast cloud deck at 2000 feet AGL
Weather: -SN  (light snow)

METAR text: KCLE 181901Z 33009KT 3SM -SN SCT017 BKN023 OVC028 M04/M08 A3025 RMK AO2 P0000 T10441078
Conditions at: KCLE (CLEVELAND , OH, US) observed 1901 UTC 18 February 2019
Temperature: -4.4°C (24°F)
Dewpoint: -7.8°C (18°F) [RH = 77%]
Pressure (altimeter): 30.25 inches Hg (1024.5 mb)
Winds: from the NNW (330 degrees) at 10 MPH (9 knots; 4.6 m/s)
Visibility: 3 miles ( 5 km)
Ceiling: 2300 feet AGL
Clouds: scattered clouds at 1700 feet AGL
broken clouds at 2300 feet AGL
overcast cloud deck at 2800 feet AGL
Weather: -SN  (light snow)

METAR text: KCLE 181851Z 34013KT 1 1/2SM -SN BKN017 OVC023 M04/M08 A3025 RMK AO2 SLP253 P0000 T10441078
Conditions at: KCLE (CLEVELAND , OH, US) observed 1851 UTC 18 February 2019
Temperature: -4.4°C (24°F)
Dewpoint: -7.8°C (18°F) [RH = 77%]
Pressure (altimeter): 30.25 inches Hg (1024.5 mb)
[Sea-level pressure: 1025.3 mb]
Winds: from the NNW (340 degrees) at 15 MPH (13 knots; 6.7 m/s)
Visibility: 1.50 miles (2.41 km)
Ceiling: 1700 feet AGL
Clouds: broken clouds at 1700 feet AGL
overcast cloud deck at 2300 feet AGL
Weather: -SN  (light snow)

METAR text: KCLE 181844Z 33010KT 1 3/4SM -SN OVC019 M04/M08 A3024 RMK AO2 P0000 T10441083
Conditions at: KCLE (CLEVELAND , OH, US) observed 1844 UTC 18 February 2019
Temperature: -4.4°C (24°F)
Dewpoint: -8.3°C (17°F) [RH = 74%]
Pressure (altimeter): 30.24 inches Hg (1024.1 mb)
Winds: from the NNW (330 degrees) at 12 MPH (10 knots; 5.1 m/s)
Visibility: 1.75 miles (2.82 km)
Ceiling: 1900 feet AGL
Clouds: overcast cloud deck at 1900 feet AGL
Weather: -SN  (light snow)

METAR text: KCLE 181809Z 33010KT 6SM -SN OVC017 M04/M08 A3023 RMK AO2 P0000 T10441083
Conditions at: KCLE (CLEVELAND , OH, US) observed 1809 UTC 18 February 2019
Temperature: -4.4°C (24°F)
Dewpoint: -8.3°C (17°F) [RH = 74%]
Pressure (altimeter): 30.23 inches Hg (1023.8 mb)
Winds: from the NNW (330 degrees) at 12 MPH (10 knots; 5.1 m/s)
Visibility: 6 miles (10 km)
Ceiling: 1700 feet AGL
Clouds: overcast cloud deck at 1700 feet AGL
Weather: -SN  (light snow)

METAR text: KCLE 181751Z 33011KT 4SM -SN BKN014 OVC019 M04/M08 A3023 RMK AO2 SLP249 4/001 P0000 60002 T10441078 11044 21050 53028
Conditions at: KCLE (CLEVELAND , OH, US) observed 1751 UTC 18 February 2019
Temperature: -4.4°C (24°F)
Dewpoint: -7.8°C (18°F) [RH = 77%]
Pressure (altimeter): 30.23 inches Hg (1023.8 mb)
[Sea-level pressure: 1024.9 mb]
Winds: from the NNW (330 degrees) at 13 MPH (11 knots; 5.7 m/s)
Visibility: 4 miles ( 6 km)
Ceiling: 1400 feet AGL
Clouds: broken clouds at 1400 feet AGL
overcast cloud deck at 1900 feet AGL
Weather: -SN  (light snow)

METAR text: KCLE 181748Z 33009KT 3SM -SN BKN014 OVC019 M04/M07 A3023 RMK AO2 P0000
Conditions at: KCLE (CLEVELAND , OH, US) observed 1748 UTC 18 February 2019
Temperature: -4.0°C (25°F)
Dewpoint: -7.0°C (19°F) [RH = 80%]
Pressure (altimeter): 30.23 inches Hg (1023.8 mb)
Winds: from the NNW (330 degrees) at 10 MPH (9 knots; 4.6 m/s)
Visibility: 3 miles ( 5 km)
Ceiling: 1400 feet AGL
Clouds: broken clouds at 1400 feet AGL
overcast cloud deck at 1900 feet AGL
Weather: -SN  (light snow)

METAR text: KCLE 181653Z 30009KT 1 3/4SM -SN BKN012 OVC019 M04/M07 A3020 RMK AO2 P0000 T10441072
Conditions at: KCLE (CLEVELAND , OH, US) observed 1653 UTC 18 February 2019
Temperature: -4.4°C (24°F)
Dewpoint: -7.2°C (19°F) [RH = 81%]
Pressure (altimeter): 30.20 inches Hg (1022.8 mb)
Winds: from the WNW (300 degrees) at 10 MPH (9 knots; 4.6 m/s)
Visibility: 1.75 miles (2.82 km)
Ceiling: 1200 feet AGL
Clouds: broken clouds at 1200 feet AGL
overcast cloud deck at 1900 feet AGL
Weather: -SN  (light snow)

METAR text: KCLE 181651Z 29009KT 2SM -SN BKN014 OVC019 M05/M08 A3020 RMK AO2 SLP236 P0000 T10501078
Conditions at: KCLE (CLEVELAND , OH, US) observed 1651 UTC 18 February 2019
Temperature: -5.0°C (23°F)
Dewpoint: -7.8°C (18°F) [RH = 81%]
Pressure (altimeter): 30.20 inches Hg (1022.8 mb)
[Sea-level pressure: 1023.6 mb]
Winds: from the WNW (290 degrees) at 10 MPH (9 knots; 4.6 m/s)
Visibility: 2.00 miles (3.22 km)
Ceiling: 1400 feet AGL
Clouds: broken clouds at 1400 feet AGL
overcast cloud deck at 1900 feet AGL
Weather: -SN  (light snow)

METAR text: KCLE 181622Z 31010KT 2SM -SN OVC012 M04/M08 A3017 RMK AO2 P0000 T10441078
Conditions at: KCLE (CLEVELAND , OH, US) observed 1622 UTC 18 February 2019
Temperature: -4.4°C (24°F)
Dewpoint: -7.8°C (18°F) [RH = 77%]
Pressure (altimeter): 30.17 inches Hg (1021.8 mb)
Winds: from the NW (310 degrees) at 12 MPH (10 knots; 5.1 m/s)
Visibility: 2.00 miles (3.22 km)
Ceiling: 1200 feet AGL
Clouds: overcast cloud deck at 1200 feet AGL
Weather: -SN  (light snow)

METAR text: KCLE 181605Z 31009KT 3SM -SN BKN012 OVC018 M04/M07 A3016 RMK AO2 P0000 T10441072
Conditions at: KCLE (CLEVELAND , OH, US) observed 1605 UTC 18 February 2019
Temperature: -4.4°C (24°F)
Dewpoint: -7.2°C (19°F) [RH = 81%]
Pressure (altimeter): 30.16 inches Hg (1021.4 mb)
Winds: from the NW (310 degrees) at 10 MPH (9 knots; 4.6 m/s)
Visibility: 3 miles ( 5 km)
Ceiling: 1200 feet AGL
Clouds: broken clouds at 1200 feet AGL
overcast cloud deck at 1800 feet AGL
Weather: -SN  (light snow)

METAR text: KCLE 181551Z 32008KT 1 1/4SM -SN BKN010 OVC016 M04/M07 A3015 RMK AO2 SLP218 P0001 T10441072
Conditions at: KCLE (CLEVELAND , OH, US) observed 1551 UTC 18 February 2019
Temperature: -4.4°C (24°F)
Dewpoint: -7.2°C (19°F) [RH = 81%]
Pressure (altimeter): 30.15 inches Hg (1021.1 mb)
[Sea-level pressure: 1021.8 mb]
Winds: from the NW (320 degrees) at 9 MPH (8 knots; 4.1 m/s)
Visibility: 1.25 miles (2.01 km)
Ceiling: 1000 feet AGL
Clouds: broken clouds at 1000 feet AGL
overcast cloud deck at 1600 feet AGL
Weather: -SN  (light snow)

METAR text: KCLE 181549Z 32008KT 1 1/4SM -SN BKN010 OVC016 M04/M07 A3015 RMK AO2 P0001
Conditions at: KCLE (CLEVELAND , OH, US) observed 1549 UTC 18 February 2019
Temperature: -4.0°C (25°F)
Dewpoint: -7.0°C (19°F) [RH = 80%]
Pressure (altimeter): 30.15 inches Hg (1021.1 mb)
Winds: from the NW (320 degrees) at 9 MPH (8 knots; 4.1 m/s)
Visibility: 1.25 miles (2.01 km)
Ceiling: 1000 feet AGL
Clouds: broken clouds at 1000 feet AGL
overcast cloud deck at 1600 feet AGL
Weather: -SN  (light snow)

METAR text: KCLE 181514Z 31008KT 2 1/2SM -SN OVC012 M04/M07 A3013 RMK AO2 P0000 T10441072
Conditions at: KCLE (CLEVELAND , OH, US) observed 1514 UTC 18 February 2019
Temperature: -4.4°C (24°F)
Dewpoint: -7.2°C (19°F) [RH = 81%]
Pressure (altimeter): 30.13 inches Hg (1020.4 mb)
Winds: from the NW (310 degrees) at 9 MPH (8 knots; 4.1 m/s)
Visibility: 2.50 miles (4.02 km)
Ceiling: 1200 feet AGL
Clouds: overcast cloud deck at 1200 feet AGL
Weather: -SN  (light snow)

METAR text: KCLE 181451Z 32009KT 5SM -SN OVC011 M04/M07 A3011 RMK AO2 SLP206 P0000 60001 T10441072 51036
Conditions at: KCLE (CLEVELAND , OH, US) observed 1451 UTC 18 February 2019
Temperature: -4.4°C (24°F)
Dewpoint: -7.2°C (19°F) [RH = 81%]
Pressure (altimeter): 30.11 inches Hg (1019.7 mb)
[Sea-level pressure: 1020.6 mb]
Winds: from the NW (320 degrees) at 10 MPH (9 knots; 4.6 m/s)
Visibility: 5 miles ( 8 km)
Ceiling: 1100 feet AGL
Clouds: overcast cloud deck at 1100 feet AGL
Weather: -SN  (light snow)

METAR text: KCLE 181425Z 31006KT 4SM -SN BR BKN010 OVC015 M05/M07 A3010 RMK AO2 P0000 T10501072
Conditions at: KCLE (CLEVELAND , OH, US) observed 1425 UTC 18 February 2019
Temperature: -5.0°C (23°F)
Dewpoint: -7.2°C (19°F) [RH = 85%]
Pressure (altimeter): 30.10 inches Hg (1019.4 mb)
Winds: from the NW (310 degrees) at 7 MPH (6 knots; 3.1 m/s)
Visibility: 4 miles ( 6 km)
Ceiling: 1000 feet AGL
Clouds: broken clouds at 1000 feet AGL
overcast cloud deck at 1500 feet AGL
Weather: -SN BR  (light snow, mist)

METAR text: KCLE 181415Z 31006KT 2 1/2SM -SN BR OVC013 M05/M07 A3009 RMK AO2 P0000 T10501072
Conditions at: KCLE (CLEVELAND , OH, US) observed 1415 UTC 18 February 2019
Temperature: -5.0°C (23°F)
Dewpoint: -7.2°C (19°F) [RH = 85%]
Pressure (altimeter): 30.09 inches Hg (1019.0 mb)
Winds: from the NW (310 degrees) at 7 MPH (6 knots; 3.1 m/s)
Visibility: 2.50 miles (4.02 km)
Ceiling: 1300 feet AGL
Clouds: overcast cloud deck at 1300 feet AGL
Weather: -SN BR  (light snow, mist)

METAR text: KCLE 181351Z 33008KT 1SM -SN BR OVC011 M05/M07 A3008 RMK AO2 SLP197 P0001 T10501072
Conditions at: KCLE (CLEVELAND , OH, US) observed 1351 UTC 18 February 2019
Temperature: -5.0°C (23°F)
Dewpoint: -7.2°C (19°F) [RH = 85%]
Pressure (altimeter): 30.08 inches Hg (1018.7 mb)
[Sea-level pressure: 1019.7 mb]
Winds: from the NNW (330 degrees) at 9 MPH (8 knots; 4.1 m/s)
Visibility: 1.00 miles (1.61 km)
Ceiling: 1100 feet AGL
Clouds: overcast cloud deck at 1100 feet AGL
Weather: -SN BR  (light snow, mist)

METAR text: KCLE 181345Z 32007KT 1 3/4SM -SN BR OVC009 M05/M07 A3008 RMK AO2 P0001
Conditions at: KCLE (CLEVELAND , OH, US) observed 1345 UTC 18 February 2019
Temperature: -5.0°C (23°F)
Dewpoint: -7.0°C (19°F) [RH = 86%]
Pressure (altimeter): 30.08 inches Hg (1018.7 mb)
Winds: from the NW (320 degrees) at 8 MPH (7 knots; 3.6 m/s)
Visibility: 1.75 miles (2.82 km)
Ceiling: 900 feet AGL
Clouds: overcast cloud deck at 900 feet AGL
Weather: -SN BR  (light snow, mist)

METAR text: KCLE 181251Z 31009KT 5SM -SN BR OVC009 M05/M07 A3004 RMK AO2 SLP183 P0000 T10501067
Conditions at: KCLE (CLEVELAND , OH, US) observed 1251 UTC 18 February 2019
Temperature: -5.0°C (23°F)
Dewpoint: -6.7°C (20°F) [RH = 88%]
Pressure (altimeter): 30.04 inches Hg (1017.4 mb)
[Sea-level pressure: 1018.3 mb]
Winds: from the NW (310 degrees) at 10 MPH (9 knots; 4.6 m/s)
Visibility: 5 miles ( 8 km)
Ceiling: 900 feet AGL
Clouds: overcast cloud deck at 900 feet AGL
Weather: -SN BR  (light snow, mist)

METAR text: KCLE 181151Z 30009KT 6SM -SN BR OVC006 M04/M06 A3000 RMK AO2 SLP169 4/001 P0000 60000 70012 T10441061 11028 21044 51030
Conditions at: KCLE (CLEVELAND , OH, US) observed 1151 UTC 18 February 2019
Temperature: -4.4°C (24°F)
Dewpoint: -6.1°C (21°F) [RH = 88%]
Pressure (altimeter): 30.00 inches Hg (1016.0 mb)
[Sea-level pressure: 1016.9 mb]
Winds: from the WNW (300 degrees) at 10 MPH (9 knots; 4.6 m/s)
Visibility: 6 miles (10 km)
Ceiling: 600 feet AGL
Clouds: overcast cloud deck at 600 feet AGL
Weather: -SN BR  (light snow, mist)

METAR text: KCLE 181051Z 27007KT 7SM -SN OVC005 M04/M06 A2997 RMK AO2 SLP159 P0000 T10441056
Conditions at: KCLE (CLEVELAND , OH, US) observed 1051 UTC 18 February 2019
Temperature: -4.4°C (24°F)
Dewpoint: -5.6°C (22°F) [RH = 91%]
Pressure (altimeter): 29.97 inches Hg (1015.0 mb)
[Sea-level pressure: 1015.9 mb]
Winds: from the W (270 degrees) at 8 MPH (7 knots; 3.6 m/s)
Visibility: 7 miles (11 km)
Ceiling: 500 feet AGL
Clouds: overcast cloud deck at 500 feet AGL
Weather: -SN  (light snow)

METAR text: KCLE 180951Z 33009KT 4SM -SN BR OVC005 M04/M06 A2995 RMK AO2 SLP150 P0000 T10441056
Conditions at: KCLE (CLEVELAND , OH, US) observed 0951 UTC 18 February 2019
Temperature: -4.4°C (24°F)
Dewpoint: -5.6°C (22°F) [RH = 91%]
Pressure (altimeter): 29.95 inches Hg (1014.3 mb)
[Sea-level pressure: 1015.0 mb]
Winds: from the NNW (330 degrees) at 10 MPH (9 knots; 4.6 m/s)
Visibility: 4 miles ( 6 km)
Ceiling: 500 feet AGL
Clouds: overcast cloud deck at 500 feet AGL
Weather: -SN BR  (light snow, mist)

METAR text: KCLE 180851Z 32009KT 3SM -SN BR OVC005 M04/M05 A2991 RMK AO2 SLP138 P0000 60000 T10391050 51031
Conditions at: KCLE (CLEVELAND , OH, US) observed 0851 UTC 18 February 2019
Temperature: -3.9°C (25°F)
Dewpoint: -5.0°C (23°F) [RH = 92%]
Pressure (altimeter): 29.91 inches Hg (1013.0 mb)
[Sea-level pressure: 1013.8 mb]
Winds: from the NW (320 degrees) at 10 MPH (9 knots; 4.6 m/s)
Visibility: 3 miles ( 5 km)
Ceiling: 500 feet AGL
Clouds: overcast cloud deck at 500 feet AGL
Weather: -SN BR  (light snow, mist)

METAR text: KCLE 180751Z 33006KT 5SM -SN BR BKN007 OVC013 M03/M05 A2988 RMK AO2 SLP129 P0000 T10331050
Conditions at: KCLE (CLEVELAND , OH, US) observed 0751 UTC 18 February 2019
Temperature: -3.3°C (26°F)
Dewpoint: -5.0°C (23°F) [RH = 88%]
Pressure (altimeter): 29.88 inches Hg (1011.9 mb)
[Sea-level pressure: 1012.9 mb]
Winds: from the NNW (330 degrees) at 7 MPH (6 knots; 3.1 m/s)
Visibility: 5 miles ( 8 km)
Ceiling: 700 feet AGL
Clouds: broken clouds at 700 feet AGL
overcast cloud deck at 1300 feet AGL
Weather: -SN BR  (light snow, mist)

METAR text: KCLE 180651Z 36010KT 9SM -SN OVC008 M03/M06 A2985 RMK AO2 SLP117 P0000 T10331056
Conditions at: KCLE (CLEVELAND , OH, US) observed 0651 UTC 18 February 2019
Temperature: -3.3°C (26°F)
Dewpoint: -5.6°C (22°F) [RH = 84%]
Pressure (altimeter): 29.85 inches Hg (1010.9 mb)
[Sea-level pressure: 1011.7 mb]
Winds: from the N (360 degrees) at 12 MPH (10 knots; 5.1 m/s)
Visibility: 9 miles (14 km)
Ceiling: 800 feet AGL
Clouds: overcast cloud deck at 800 feet AGL
Weather: -SN  (light snow)

METAR text: KCLE 180551Z 36012KT 8SM -SN OVC005 M03/M04 A2982 RMK AO2 SLP105 4/001 P0000 60001 I6008 T10281044 11017 21028 53018
Conditions at: KCLE (CLEVELAND , OH, US) observed 0551 UTC 18 February 2019
Temperature: -2.8°C (27°F)
Dewpoint: -4.4°C (24°F) [RH = 89%]
Pressure (altimeter): 29.82 inches Hg (1009.9 mb)
[Sea-level pressure: 1010.5 mb]
Winds: from the N (360 degrees) at 14 MPH (12 knots; 6.2 m/s)
Visibility: 8 miles (13 km)
Ceiling: 500 feet AGL
Clouds: overcast cloud deck at 500 feet AGL
Weather: -SN  (light snow)

METAR text: KCLE 180529Z 35007KT 3SM -SN BR OVC005 M02/M03 A2980 RMK AO2 P0000 T10221033
Conditions at: KCLE (CLEVELAND , OH, US) observed 0529 UTC 18 February 2019
Temperature: -2.2°C (28°F)
Dewpoint: -3.3°C (26°F) [RH = 92%]
Pressure (altimeter): 29.80 inches Hg (1009.2 mb)
Winds: from the N (350 degrees) at 8 MPH (7 knots; 3.6 m/s)
Visibility: 3 miles ( 5 km)
Ceiling: 500 feet AGL
Clouds: overcast cloud deck at 500 feet AGL
Weather: -SN BR  (light snow, mist)

METAR text: KCLE 180503Z 02006KT 2SM -SN BR OVC005 M02/M03 A2978 RMK AO2 P0000 T10171033
Conditions at: KCLE (CLEVELAND , OH, US) observed 0503 UTC 18 February 2019
Temperature: -1.7°C (29°F)
Dewpoint: -3.3°C (26°F) [RH = 89%]
Pressure (altimeter): 29.78 inches Hg (1008.5 mb)
Winds: from the NNE (20 degrees) at 7 MPH (6 knots; 3.1 m/s)
Visibility: 2.00 miles (3.22 km)
Ceiling: 500 feet AGL
Clouds: overcast cloud deck at 500 feet AGL
Weather: -SN BR  (light snow, mist)

METAR text: KCLE 180451Z 04008KT 3SM -SN BR OVC005 M02/M03 A2978 RMK AO2 SLP091 P0000 T10171033 400061039
Conditions at: KCLE (CLEVELAND , OH, US) observed 0451 UTC 18 February 2019
Temperature: -1.7°C (29°F)
Dewpoint: -3.3°C (26°F) [RH = 89%]
Pressure (altimeter): 29.78 inches Hg (1008.5 mb)
[Sea-level pressure: 1009.1 mb]
Winds: from the NE (40 degrees) at 9 MPH (8 knots; 4.1 m/s)
Visibility: 3 miles ( 5 km)
Ceiling: 500 feet AGL
Clouds: overcast cloud deck at 500 feet AGL
Weather: -SN BR  (light snow, mist)

METAR text: KCLE 180424Z 01006KT 4SM -SN BKN005 OVC020 M02/M03 A2977 RMK AO2 P0000 T10171028
Conditions at: KCLE (CLEVELAND , OH, US) observed 0424 UTC 18 February 2019
Temperature: -1.7°C (29°F)
Dewpoint: -2.8°C (27°F) [RH = 92%]
Pressure (altimeter): 29.77 inches Hg (1008.2 mb)
Winds: from the N (10 degrees) at 7 MPH (6 knots; 3.1 m/s)
Visibility: 4 miles ( 6 km)
Ceiling: 500 feet AGL
Clouds: broken clouds at 500 feet AGL
overcast cloud deck at 2000 feet AGL
Weather: -SN  (light snow)

METAR text: KCLE 180408Z 01005KT 3SM -SN FEW005 OVC018 M02/M03 A2977 RMK AO2 P0000 T10171028
Conditions at: KCLE (CLEVELAND , OH, US) observed 0408 UTC 18 February 2019
Temperature: -1.7°C (29°F)
Dewpoint: -2.8°C (27°F) [RH = 92%]
Pressure (altimeter): 29.77 inches Hg (1008.2 mb)
Winds: from the N (10 degrees) at 6 MPH (5 knots; 2.6 m/s)
Visibility: 3 miles ( 5 km)
Ceiling: 1800 feet AGL
Clouds: few clouds at 500 feet AGL
overcast cloud deck at 1800 feet AGL
Weather: -SN  (light snow)

METAR text: KCLE 180359Z 35005KT 1 3/4SM -SN SCT003 SCT011 OVC021 M02/M03 A2977 RMK AO2 P0000 T10171028
Conditions at: KCLE (CLEVELAND , OH, US) observed 0359 UTC 18 February 2019
Temperature: -1.7°C (29°F)
Dewpoint: -2.8°C (27°F) [RH = 92%]
Pressure (altimeter): 29.77 inches Hg (1008.2 mb)
Winds: from the N (350 degrees) at 6 MPH (5 knots; 2.6 m/s)
Visibility: 1.75 miles (2.82 km)
Ceiling: 2100 feet AGL
Clouds: scattered clouds at 300 feet AGL
scattered clouds at 1100 feet AGL
overcast cloud deck at 2100 feet AGL
Weather: -SN  (light snow)

METAR text: KCLE 180351Z 35005KT 1 3/4SM -SN BKN003 BKN011 OVC023 M02/M03 A2978 RMK AO2 FZDZE45SNB43 SLP092 P0001 I1001 T10171028
Conditions at: KCLE (CLEVELAND , OH, US) observed 0351 UTC 18 February 2019
Temperature: -1.7°C (29°F)
Dewpoint: -2.8°C (27°F) [RH = 92%]
Pressure (altimeter): 29.78 inches Hg (1008.5 mb)
[Sea-level pressure: 1009.2 mb]
Winds: from the N (350 degrees) at 6 MPH (5 knots; 2.6 m/s)
Visibility: 1.75 miles (2.82 km)
Ceiling: 300 feet AGL
Clouds: broken clouds at 300 feet AGL
broken clouds at 1100 feet AGL
overcast cloud deck at 2300 feet AGL
Weather: -SN  (light snow)

METAR text: KCLE 180349Z 36004KT 1 3/4SM -SN BKN003 BKN011 OVC023 M02/M03 A2978 RMK AO2 FZDZE45SNB43 P0001 I1001
Conditions at: KCLE (CLEVELAND , OH, US) observed 0349 UTC 18 February 2019
Temperature: -2.0°C (28°F)
Dewpoint: -3.0°C (27°F) [RH = 93%]
Pressure (altimeter): 29.78 inches Hg (1008.5 mb)
Winds: from the N (360 degrees) at 5 MPH (4 knots; 2.1 m/s)
Visibility: 1.75 miles (2.82 km)
Ceiling: 300 feet AGL
Clouds: broken clouds at 300 feet AGL
broken clouds at 1100 feet AGL
overcast cloud deck at 2300 feet AGL
Weather: -SN  (light snow)

METAR text: KCLE 180345Z 36006KT 2SM -SN BKN003 OVC011 M02/M03 A2978 RMK AO2 FZDZE45SNB43 P0001 I1001
Conditions at: KCLE (CLEVELAND , OH, US) observed 0345 UTC 18 February 2019
Temperature: -2.0°C (28°F)
Dewpoint: -3.0°C (27°F) [RH = 93%]
Pressure (altimeter): 29.78 inches Hg (1008.5 mb)
Winds: from the N (360 degrees) at 7 MPH (6 knots; 3.1 m/s)
Visibility: 2.00 miles (3.22 km)
Ceiling: 300 feet AGL
Clouds: broken clouds at 300 feet AGL
overcast cloud deck at 1100 feet AGL
Weather: -SN  (light snow)

METAR text: KCLE 180333Z 01005KT 2 1/2SM -FZDZ OVC003 M02/M03 A2978 RMK AO2 P0000 I1001 T10171028
Conditions at: KCLE (CLEVELAND , OH, US) observed 0333 UTC 18 February 2019
Temperature: -1.7°C (29°F)
Dewpoint: -2.8°C (27°F) [RH = 92%]
Pressure (altimeter): 29.78 inches Hg (1008.5 mb)
Winds: from the N (10 degrees) at 6 MPH (5 knots; 2.6 m/s)
Visibility: 2.50 miles (4.02 km)
Ceiling: 300 feet AGL
Clouds: overcast cloud deck at 300 feet AGL
Weather: -FZDZ  (light freezing drizzle)

METAR text: KCLE 180251Z 34006KT 3SM -FZDZ OVC003 M02/M03 A2976 RMK AO2 SLP088 P0000 60000 I1002 I3007 T10171028 55005
Conditions at: KCLE (CLEVELAND , OH, US) observed 0251 UTC 18 February 2019
Temperature: -1.7°C (29°F)
Dewpoint: -2.8°C (27°F) [RH = 92%]
Pressure (altimeter): 29.76 inches Hg (1007.9 mb)
[Sea-level pressure: 1008.8 mb]
Winds: from the NNW (340 degrees) at 7 MPH (6 knots; 3.1 m/s)
Visibility: 3 miles ( 5 km)
Ceiling: 300 feet AGL
Clouds: overcast cloud deck at 300 feet AGL
Weather: -FZDZ  (light freezing drizzle)

METAR text: KCLE 180151Z 03005KT 2 1/2SM -FZDZ OVC003 M02/M03 A2976 RMK AO2 FZRAE17FZDZB17 SLP086 P0000 I1002 T10171028
Conditions at: KCLE (CLEVELAND , OH, US) observed 0151 UTC 18 February 2019
Temperature: -1.7°C (29°F)
Dewpoint: -2.8°C (27°F) [RH = 92%]
Pressure (altimeter): 29.76 inches Hg (1007.9 mb)
[Sea-level pressure: 1008.6 mb]
Winds: from the NNE (30 degrees) at 6 MPH (5 knots; 2.6 m/s)
Visibility: 2.50 miles (4.02 km)
Ceiling: 300 feet AGL
Clouds: overcast cloud deck at 300 feet AGL
Weather: -FZDZ  (light freezing drizzle)

METAR text: KCLE 180123Z 03008KT 2 1/2SM -FZDZ OVC003 M02/M03 A2976 RMK AO2 FZRAE17FZDZB17 P0000 I1001 T10171028
Conditions at: KCLE (CLEVELAND , OH, US) observed 0123 UTC 18 February 2019
Temperature: -1.7°C (29°F)
Dewpoint: -2.8°C (27°F) [RH = 92%]
Pressure (altimeter): 29.76 inches Hg (1007.9 mb)
Winds: from the NNE (30 degrees) at 9 MPH (8 knots; 4.1 m/s)
Visibility: 2.50 miles (4.02 km)
Ceiling: 300 feet AGL
Clouds: overcast cloud deck at 300 feet AGL
Weather: -FZDZ  (light freezing drizzle)

METAR text: KCLE 180104Z 03007KT 2 1/2SM -FZRA BKN003 OVC012 M02/M03 A2977 RMK AO2 P0000 I1000 T10171028
Conditions at: KCLE (CLEVELAND , OH, US) observed 0104 UTC 18 February 2019
Temperature: -1.7°C (29°F)
Dewpoint: -2.8°C (27°F) [RH = 92%]
Pressure (altimeter): 29.77 inches Hg (1008.2 mb)
Winds: from the NNE (30 degrees) at 8 MPH (7 knots; 3.6 m/s)
Visibility: 2.50 miles (4.02 km)
Ceiling: 300 feet AGL
Clouds: broken clouds at 300 feet AGL
overcast cloud deck at 1200 feet AGL
Weather: -FZRA  (light freezing rain)

METAR text: KCLE 180051Z 02009KT 3SM -FZRA BKN003 OVC012 M02/M03 A2977 RMK AO2 SLP091 P0000 I1003 T10171028
Conditions at: KCLE (CLEVELAND , OH, US) observed 0051 UTC 18 February 2019
Temperature: -1.7°C (29°F)
Dewpoint: -2.8°C (27°F) [RH = 92%]
Pressure (altimeter): 29.77 inches Hg (1008.2 mb)
[Sea-level pressure: 1009.1 mb]
Winds: from the NNE (20 degrees) at 10 MPH (9 knots; 4.6 m/s)
Visibility: 3 miles ( 5 km)
Ceiling: 300 feet AGL
Clouds: broken clouds at 300 feet AGL
overcast cloud deck at 1200 feet AGL
Weather: -FZRA  (light freezing rain)

METAR text: KCLE 180020Z 01007KT 3SM -FZRA OVC004 M02/M03 A2978 RMK AO2 P0000 I1001 T10171028
Conditions at: KCLE (CLEVELAND , OH, US) observed 0020 UTC 18 February 2019
Temperature: -1.7°C (29°F)
Dewpoint: -2.8°C (27°F) [RH = 92%]
Pressure (altimeter): 29.78 inches Hg (1008.5 mb)
Winds: from the N (10 degrees) at 8 MPH (7 knots; 3.6 m/s)
Visibility: 3 miles ( 5 km)
Ceiling: 400 feet AGL
Clouds: overcast cloud deck at 400 feet AGL
Weather: -FZRA  (light freezing rain)

METAR text: KCLE 172351Z 03008KT 3SM -FZRA OVC007 M02/M03 A2978 RMK AO2 SLP093 4/001 P0001 60011 I1004 I6005 T10171028 10000 21022 56013
Conditions at: KCLE (CLEVELAND , OH, US) observed 2351 UTC 17 February 2019
Temperature: -1.7°C (29°F)
Dewpoint: -2.8°C (27°F) [RH = 92%]
Pressure (altimeter): 29.78 inches Hg (1008.5 mb)
[Sea-level pressure: 1009.3 mb]
Winds: from the NNE (30 degrees) at 9 MPH (8 knots; 4.1 m/s)
Visibility: 3 miles ( 5 km)
Ceiling: 700 feet AGL
Clouds: overcast cloud deck at 700 feet AGL
Weather: -FZRA  (light freezing rain)

METAR text: KCLE 172336Z 03009KT 3SM -FZRA OVC007 M02/M03 A2979 RMK AO2 P0000 I1003 T10171028
Conditions at: KCLE (CLEVELAND , OH, US) observed 2336 UTC 17 February 2019
Temperature: -1.7°C (29°F)
Dewpoint: -2.8°C (27°F) [RH = 92%]
Pressure (altimeter): 29.79 inches Hg (1008.9 mb)
Winds: from the NNE (30 degrees) at 10 MPH (9 knots; 4.6 m/s)
Visibility: 3 miles ( 5 km)
Ceiling: 700 feet AGL
Clouds: overcast cloud deck at 700 feet AGL
Weather: -FZRA  (light freezing rain)

METAR text: KCLE 172315Z 03007KT 2SM -FZRA BKN007 OVC012 M01/M03 A2979 RMK AO2 P0000 I1001 T10111028
Conditions at: KCLE (CLEVELAND , OH, US) observed 2315 UTC 17 February 2019
Temperature: -1.1°C (30°F)
Dewpoint: -2.8°C (27°F) [RH = 88%]
Pressure (altimeter): 29.79 inches Hg (1008.9 mb)
Winds: from the NNE (30 degrees) at 8 MPH (7 knots; 3.6 m/s)
Visibility: 2.00 miles (3.22 km)
Ceiling: 700 feet AGL
Clouds: broken clouds at 700 feet AGL
overcast cloud deck at 1200 feet AGL
Weather: -FZRA  (light freezing rain)

METAR text: KCLE 172309Z 02008KT 1 3/4SM -FZRA OVC010 M01/M03 A2978 RMK AO2 P0000 I1001 T10111028
Conditions at: KCLE (CLEVELAND , OH, US) observed 2309 UTC 17 February 2019
Temperature: -1.1°C (30°F)
Dewpoint: -2.8°C (27°F) [RH = 88%]
Pressure (altimeter): 29.78 inches Hg (1008.5 mb)
Winds: from the NNE (20 degrees) at 9 MPH (8 knots; 4.1 m/s)
Visibility: 1.75 miles (2.82 km)
Ceiling: 1000 feet AGL
Clouds: overcast cloud deck at 1000 feet AGL
Weather: -FZRA  (light freezing rain)

METAR text: KCLE 172259Z 03006KT 2SM -FZRA OVC012 M01/M03 A2979 RMK AO2 P0000 I1000 T10111028
Conditions at: KCLE (CLEVELAND , OH, US) observed 2259 UTC 17 February 2019
Temperature: -1.1°C (30°F)
Dewpoint: -2.8°C (27°F) [RH = 88%]
Pressure (altimeter): 29.79 inches Hg (1008.9 mb)
Winds: from the NNE (30 degrees) at 7 MPH (6 knots; 3.1 m/s)
Visibility: 2.00 miles (3.22 km)
Ceiling: 1200 feet AGL
Clouds: overcast cloud deck at 1200 feet AGL
Weather: -FZRA  (light freezing rain)

METAR text: KCLE 172251Z 05006KT 3SM -FZRA OVC012 M01/M03 A2979 RMK AO2 FZRAB50SNB2156E28 SLP095 P0000 I1001 T10061033
Conditions at: KCLE (CLEVELAND , OH, US) observed 2251 UTC 17 February 2019
Temperature: -0.6°C (31°F)
Dewpoint: -3.3°C (26°F) [RH = 82%]
Pressure (altimeter): 29.79 inches Hg (1008.9 mb)
[Sea-level pressure: 1009.5 mb]
Winds: from the NE (50 degrees) at 7 MPH (6 knots; 3.1 m/s)
Visibility: 3 miles ( 5 km)
Ceiling: 1200 feet AGL
Clouds: overcast cloud deck at 1200 feet AGL
Weather: -FZRA  (light freezing rain)

METAR text: KCLE 172231Z 04007KT 9SM BKN012 OVC024 M01/M03 A2978 RMK AO2 SNB2156E28 P0000 T10111033
Conditions at: KCLE (CLEVELAND , OH, US) observed 2231 UTC 17 February 2019
Temperature: -1.1°C (30°F)
Dewpoint: -3.3°C (26°F) [RH = 85%]
Pressure (altimeter): 29.78 inches Hg (1008.5 mb)
Winds: from the NE (40 degrees) at 8 MPH (7 knots; 3.6 m/s)
Visibility: 9 miles (14 km)
Ceiling: 1200 feet AGL
Clouds: broken clouds at 1200 feet AGL
overcast cloud deck at 2400 feet AGL
Weather: no significant weather observed at this time

Forecast for: KCLE (CLEVELAND , OH, US)
Text: KCLE 190853Z 1909/2012 18004KT P6SM BKN250
Forecast period: 0900 to 1900 UTC 19 February 2019
Forecast type: FROM: standard forecast or significant change
Winds: from the S (180 degrees) at 5 MPH (4 knots; 2.1 m/s)
Visibility: 6 or more miles 10+ km)
Ceiling: 25000 feet AGL
Clouds: broken clouds at 25000 feet AGL
Weather: no significant weather forecast for this period
Text: FM191900 32006KT P6SM BKN180
Forecast period: 1900 UTC 19 February 2019 to 0000 UTC 20 February 2019
Forecast type: FROM: standard forecast or significant change
Winds: from the NW (320 degrees) at 7 MPH (6 knots; 3.1 m/s)
Visibility: 6 or more miles 10+ km)
Ceiling: 18000 feet AGL
Clouds: broken clouds at 18000 feet AGL
Weather: no significant weather forecast for this period
Text: FM200000 10004KT P6SM BKN150
Forecast period: 0000 to 1200 UTC 20 February 2019
Forecast type: FROM: standard forecast or significant change
Winds: from the E (100 degrees) at 5 MPH (4 knots; 2.1 m/s)
Visibility: 6 or more miles 10+ km)
Ceiling: 15000 feet AGL
Clouds: broken clouds at 15000 feet AGL
Weather: no significant weather forecast for this period